Buckley, Michigan
Current Conditions -  °F | °C
As of 5:37 AM on Friday 24 Oct 2014 (Local Time) from KTVC Reporting Station
Overcast Overcast  
Wind Chill: 50°   Ceiling: 3000
Heat Index: 50°   Visibility: 10mi
Dew Point: 43°   Wind: 3mph
Humidity: 77%   Direction: 190°S
Pressure: 30.01"   Gusts: NA
Location:  44.5°N, 85.68°W
Report Text: KTVC 240937Z 19003KT 10SM OVC030 10/06 A3001 RMK AO2 T01000061
Loading
Personal Weather Stations






























Interactive Weather Map New forecast layout! Learn more

10-Day Weather Forecast

Advertisements
Track Severe Weather on mobile